GIS weather

Gisborne Airport
Gisborne, Gisborne Region, New Zealand

Public forecast

Using degrees Celsius for public forecast. Weather courtesy of forecast.io.

Closest aviation weather report (METAR) to Gisborne Airport

Report is more than 6 hours old.

Closest report is RNZAF Base Ohakea, 151.7 nm (280.9 km) SW. Retrieved 2020/02/21 21:20 UTC (7 days ago):

NZOH 212120Z 30008KT 5000 -RA BKN007 18/18 Q1011 BECMG 9999 BKN025 TEMPO BKN008

Closest aviation forecast (TAF) to Gisborne Airport

Closest forecast is Auckland International Airport, 180.8 nm (334.9 km) WNW. Retrieved 2020/02/29 06:12 UTC (2 hours ago):

TAF NZAA 290500Z 2906/0106 24010KT 9999 FEW020 BKN030 PROB40 TEMPO 2907/2910 BKN014 FM291000 18005KT 9999 FEW020 BECMG 2922/0100 06010KT